Wetterdaten: Woche 18.09.17 - 24.09.17 (KW38)
Datum Zeit Temperatur Luftfeuchte Luftdruck Niederschlag Windrichtung Sonnenschein Solar Wind
18.09.2017 00:00 7,3 C 94 % 1014,1 hPa 0,2 l/m W-SW 0,00 h 0 W/m 4,8 km/h (1 Bft)
18.09.2017 01:00 7,4 C 96 % 1014,1 hPa 0,0 l/m SW 0,00 h 0 W/m 6,2 km/h (2 Bft)
18.09.2017 02:00 7,4 C 97 % 1014,0 hPa 0,0 l/m SW 0,00 h 0 W/m 7,9 km/h (2 Bft)
18.09.2017 03:00 7,5 C 97 % 1013,9 hPa 0,0 l/m SW 0,00 h 0 W/m 5,2 km/h (1 Bft)
18.09.2017 04:00 7,5 C 97 % 1014,0 hPa 0,0 l/m SW 0,00 h 0 W/m 4,8 km/h (1 Bft)
18.09.2017 05:00 7,3 C 98 % 1014,1 hPa 0,2 l/m SW 0,00 h 0 W/m 2,7 km/h (1 Bft)
18.09.2017 06:00 7,3 C 97 % 1014,4 hPa 0,0 l/m SW 0,00 h 0 W/m 4,0 km/h (1 Bft)
18.09.2017 07:00 7,3 C 98 % 1014,7 hPa 0,0 l/m SW 0,00 h 20 W/m 7,9 km/h (2 Bft)
18.09.2017 08:00 8,0 C 97 % 1015,1 hPa 0,0 l/m W-SW 0,00 h 85 W/m 6,7 km/h (2 Bft)
18.09.2017 09:00 8,8 C 94 % 1015,5 hPa 0,0 l/m W-SW 0,00 h 163 W/m 7,8 km/h (2 Bft)
18.09.2017 10:00 9,8 C 90 % 1015,8 hPa 0,0 l/m W-SW 0,25 h 287 W/m 8,9 km/h (2 Bft)
18.09.2017 11:00 10,8 C 85 % 1015,7 hPa 0,0 l/m W-NW 0,17 h 272 W/m 12,1 km/h (2 Bft)
18.09.2017 12:00 11,7 C 80 % 1015,5 hPa 0,0 l/m W 0,50 h 522 W/m 14,4 km/h (3 Bft)
18.09.2017 13:00 12,4 C 77 % 1015,4 hPa 0,4 l/m SW 0,33 h 421 W/m 10,7 km/h (2 Bft)
18.09.2017 14:00 10,8 C 87 % 1015,3 hPa 0,6 l/m NW 0,17 h 257 W/m 2,5 km/h (1 Bft)
18.09.2017 15:00 11,7 C 83 % 1015,0 hPa 0,0 l/m W-NW 0,33 h 284 W/m 4,4 km/h (1 Bft)
18.09.2017 16:00 11,9 C 82 % 1015,0 hPa 0,0 l/m NW 0,50 h 347 W/m 5,3 km/h (1 Bft)
18.09.2017 17:00 12,6 C 75 % 1014,7 hPa 0,0 l/m NW 0,50 h 206 W/m 4,7 km/h (1 Bft)
18.09.2017 18:00 11,6 C 81 % 1014,9 hPa 0,0 l/m N 0,17 h 55 W/m 0,3 km/h (0 Bft)
18.09.2017 19:00 10,1 C 92 % 1015,2 hPa 0,0 l/m NW 0,00 h 11 W/m 0,8 km/h (0 Bft)
18.09.2017 20:00 8,8 C 93 % 1015,9 hPa 0,0 l/m N 0,00 h 0 W/m 0,1 km/h (0 Bft)
18.09.2017 21:00 8,4 C 95 % 1016,2 hPa 0,0 l/m N 0,00 h 0 W/m 0,0 km/h (0 Bft)
18.09.2017 22:00 8,3 C 96 % 1016,2 hPa 0,0 l/m N 0,00 h 0 W/m 0,0 km/h (0 Bft)
18.09.2017 23:00 8,2 C 96 % 1016,3 hPa 0,0 l/m N 0,00 h 0 W/m 0,0 km/h (0 Bft)
19.09.2017 00:00 7,8 C 97 % 1016,2 hPa 0,0 l/m N 0,00 h 0 W/m 0,0 km/h (0 Bft)
19.09.2017 01:00 7,9 C 97 % 1016,1 hPa 0,0 l/m N 0,00 h 0 W/m 0,0 km/h (0 Bft)
19.09.2017 02:00 8,0 C 98 % 1016,0 hPa 0,0 l/m N 0,00 h 0 W/m 0,0 km/h (0 Bft)
19.09.2017 03:00 7,9 C 97 % 1015,7 hPa 0,0 l/m N 0,00 h 0 W/m 0,0 km/h (0 Bft)
19.09.2017 04:00 7,7 C 98 % 1015,7 hPa 0,0 l/m N 0,00 h 0 W/m 0,0 km/h (0 Bft)
19.09.2017 05:00 7,7 C 98 % 1015,7 hPa 0,0 l/m N 0,00 h 0 W/m 0,0 km/h (0 Bft)
19.09.2017 06:00 7,7 C 98 % 1015,7 hPa 0,0 l/m N 0,00 h 0 W/m 0,0 km/h (0 Bft)
19.09.2017 07:00 7,6 C 98 % 1015,8 hPa 0,0 l/m N 0,00 h 22 W/m 0,0 km/h (0 Bft)
19.09.2017 08:00 8,0 C 98 % 1015,8 hPa 0,0 l/m N 0,00 h 48 W/m 0,0 km/h (0 Bft)
19.09.2017 09:00 8,5 C 98 % 1015,9 hPa 0,0 l/m N 0,00 h 62 W/m 0,0 km/h (0 Bft)
19.09.2017 10:00 9,4 C 96 % 1016,1 hPa 0,0 l/m NW 0,17 h 214 W/m 2,8 km/h (1 Bft)
19.09.2017 11:00 11,5 C 84 % 1015,8 hPa 0,0 l/m NW 0,58 h 442 W/m 5,2 km/h (1 Bft)
19.09.2017 12:00 11,4 C 80 % 1015,7 hPa 0,4 l/m N-NO 0,17 h 231 W/m 4,7 km/h (1 Bft)
19.09.2017 13:00 10,3 C 85 % 1015,8 hPa 0,4 l/m N 0,00 h 129 W/m 2,5 km/h (1 Bft)
19.09.2017 14:00 10,1 C 88 % 1015,7 hPa 1,0 l/m N 0,17 h 277 W/m 4,3 km/h (1 Bft)
19.09.2017 15:00 11,6 C 82 % 1015,8 hPa 0,0 l/m NW 0,67 h 421 W/m 8,0 km/h (2 Bft)
19.09.2017 16:00 11,8 C 80 % 1015,9 hPa 0,0 l/m W-SW 0,33 h 200 W/m 5,7 km/h (1 Bft)
19.09.2017 17:00 10,8 C 87 % 1016,1 hPa 3,2 l/m SW 0,08 h 108 W/m 10,4 km/h (2 Bft)
19.09.2017 18:00 9,4 C 93 % 1016,7 hPa 0,0 l/m W 0,92 h 90 W/m 2,8 km/h (1 Bft)
19.09.2017 19:00 9,3 C 95 % 1017,3 hPa 0,4 l/m W 0,33 h 20 W/m 1,9 km/h (1 Bft)
19.09.2017 20:00 9,1 C 97 % 1018,2 hPa 0,0 l/m W 0,00 h 0 W/m 1,9 km/h (1 Bft)
19.09.2017 21:00 8,8 C 97 % 1018,8 hPa 0,0 l/m W 0,00 h 0 W/m 2,4 km/h (1 Bft)
19.09.2017 22:00 8,5 C 98 % 1019,1 hPa 0,0 l/m N 0,00 h 0 W/m 0,3 km/h (0 Bft)
19.09.2017 23:00 8,7 C 98 % 1019,2 hPa 0,0 l/m N 0,00 h 0 W/m 2,3 km/h (1 Bft)
20.09.2017 00:00 8,6 C 98 % 1019,2 hPa 0,0 l/m N 0,00 h 0 W/m 0,4 km/h (0 Bft)
20.09.2017 01:00 8,4 C 98 % 1019,3 hPa 0,0 l/m N 0,00 h 0 W/m 0,0 km/h (0 Bft)
20.09.2017 02:00 8,2 C 98 % 1019,2 hPa 0,0 l/m N 0,00 h 0 W/m 0,0 km/h (0 Bft)
20.09.2017 03:00 8,2 C 99 % 1019,2 hPa 0,0 l/m N 0,00 h 0 W/m 0,0 km/h (0 Bft)
20.09.2017 04:00 8,0 C 99 % 1019,2 hPa 0,0 l/m N 0,00 h 0 W/m 0,0 km/h (0 Bft)
20.09.2017 05:00 7,9 C 99 % 1019,4 hPa 0,0 l/m N 0,00 h 0 W/m 0,0 km/h (0 Bft)
20.09.2017 06:00 8,0 C 99 % 1019,7 hPa 0,0 l/m W 0,00 h 0 W/m 0,9 km/h (0 Bft)
20.09.2017 07:00 8,1 C 99 % 1020,0 hPa 0,2 l/m N 0,00 h 14 W/m 0,4 km/h (0 Bft)
20.09.2017 08:00 8,4 C 99 % 1020,4 hPa 0,0 l/m N 0,00 h 83 W/m 0,7 km/h (0 Bft)
20.09.2017 09:00 9,2 C 99 % 1020,7 hPa 0,0 l/m W 0,00 h 153 W/m 0,8 km/h (0 Bft)
20.09.2017 10:00 10,2 C 95 % 1020,7 hPa 0,0 l/m W 0,00 h 233 W/m 7,2 km/h (2 Bft)
20.09.2017 11:00 11,1 C 88 % 1020,8 hPa 0,0 l/m W 0,25 h 281 W/m 5,9 km/h (2 Bft)
20.09.2017 12:00 11,9 C 84 % 1020,8 hPa 0,0 l/m W-NW 0,50 h 464 W/m 5,4 km/h (1 Bft)
20.09.2017 13:00 13,0 C 80 % 1020,5 hPa 0,0 l/m SW 0,50 h 384 W/m 11,3 km/h (2 Bft)
20.09.2017 14:00 13,0 C 79 % 1020,2 hPa 0,0 l/m S-SW 0,75 h 537 W/m 15,3 km/h (3 Bft)
20.09.2017 15:00 12,2 C 84 % 1020,1 hPa 0,0 l/m S-SW 0,33 h 318 W/m 15,6 km/h (3 Bft)
20.09.2017 16:00 13,5 C 79 % 1019,8 hPa 0,0 l/m SW 0,58 h 366 W/m 12,4 km/h (3 Bft)
20.09.2017 17:00 12,3 C 81 % 1019,8 hPa 0,2 l/m SW 0,00 h 72 W/m 9,0 km/h (2 Bft)
20.09.2017 18:00 9,9 C 89 % 1020,1 hPa 0,8 l/m W 0,25 h 42 W/m 8,1 km/h (2 Bft)
20.09.2017 19:00 9,2 C 89 % 1020,3 hPa 0,0 l/m W-SW 0,17 h 12 W/m 2,1 km/h (1 Bft)
20.09.2017 20:00 7,8 C 94 % 1020,8 hPa 0,0 l/m N 0,00 h 0 W/m 0,0 km/h (0 Bft)
20.09.2017 21:00 7,2 C 96 % 1021,2 hPa 0,0 l/m N 0,00 h 0 W/m 0,0 km/h (0 Bft)
20.09.2017 22:00 7,3 C 97 % 1021,3 hPa 0,0 l/m N 0,00 h 0 W/m 0,0 km/h (0 Bft)
20.09.2017 23:00 6,5 C 97 % 1021,2 hPa 0,0 l/m N 0,00 h 0 W/m 0,0 km/h (0 Bft)
21.09.2017 00:00 5,7 C 98 % 1021,1 hPa 0,0 l/m N 0,00 h 0 W/m 0,0 km/h (0 Bft)
21.09.2017 01:00 5,3 C 98 % 1021,1 hPa 0,0 l/m N 0,00 h 0 W/m 0,0 km/h (0 Bft)
21.09.2017 02:00 4,8 C 98 % 1021,0 hPa 0,0 l/m N 0,00 h 0 W/m 0,0 km/h (0 Bft)
21.09.2017 03:00 4,2 C 98 % 1020,9 hPa 0,0 l/m N 0,00 h 0 W/m 0,0 km/h (0 Bft)
21.09.2017 04:00 3,7 C 98 % 1020,9 hPa 0,0 l/m N 0,00 h 0 W/m 0,0 km/h (0 Bft)
21.09.2017 05:00 3,5 C 98 % 1020,9 hPa 0,0 l/m N 0,00 h 0 W/m 0,0 km/h (0 Bft)
21.09.2017 06:00 3,5 C 98 % 1020,8 hPa 0,2 l/m N 0,00 h 0 W/m 0,0 km/h (0 Bft)
21.09.2017 07:00 3,4 C 99 % 1020,6 hPa 0,0 l/m N 0,00 h 23 W/m 0,0 km/h (0 Bft)
21.09.2017 08:00 4,1 C 99 % 1021,0 hPa 0,0 l/m N 0,00 h 93 W/m 0,1 km/h (0 Bft)
21.09.2017 09:00 5,6 C 99 % 1021,1 hPa 0,0 l/m N 0,67 h 290 W/m 0,0 km/h (0 Bft)
21.09.2017 10:00 8,8 C 95 % 1021,1 hPa 0,0 l/m N 1,00 h 482 W/m 0,0 km/h (0 Bft)
21.09.2017 11:00 11,9 C 83 % 1020,9 hPa 0,0 l/m N 0,92 h 598 W/m 0,0 km/h (0 Bft)
21.09.2017 12:00 14,8 C 69 % 1020,4 hPa 0,0 l/m N 1,00 h 659 W/m 0,0 km/h (0 Bft)
21.09.2017 13:00 16,3 C 59 % 1019,8 hPa 0,0 l/m N 1,00 h 665 W/m 0,0 km/h (0 Bft)
21.09.2017 14:00 17,1 C 56 % 1019,3 hPa 0,0 l/m N 1,00 h 618 W/m 0,0 km/h (0 Bft)
21.09.2017 15:00 17,6 C 55 % 1018,7 hPa 0,0 l/m N 1,00 h 527 W/m 0,0 km/h (0 Bft)
21.09.2017 16:00 17,6 C 54 % 1018,4 hPa 0,0 l/m N 1,00 h 397 W/m 0,0 km/h (0 Bft)
21.09.2017 17:00 17,2 C 57 % 1018,3 hPa 0,0 l/m N 0,92 h 213 W/m 0,0 km/h (0 Bft)
21.09.2017 18:00 15,8 C 63 % 1018,2 hPa 0,0 l/m N 0,00 h 53 W/m 0,0 km/h (0 Bft)
21.09.2017 19:00 12,9 C 76 % 1018,2 hPa 0,0 l/m N 0,08 h 9 W/m 0,4 km/h (0 Bft)
21.09.2017 20:00 10,1 C 89 % 1018,4 hPa 0,0 l/m N 0,00 h 0 W/m 0,0 km/h (0 Bft)
21.09.2017 21:00 9,5 C 91 % 1018,7 hPa 0,0 l/m N 0,00 h 0 W/m 0,1 km/h (0 Bft)
21.09.2017 22:00 9,1 C 91 % 1018,9 hPa 0,0 l/m N 0,00 h 0 W/m 0,4 km/h (0 Bft)
21.09.2017 23:00 8,6 C 92 % 1018,7 hPa 0,0 l/m N 0,00 h 0 W/m 0,5 km/h (0 Bft)
22.09.2017 00:00 8,0 C 93 % 1018,8 hPa 0,0 l/m N 0,00 h 0 W/m 0,1 km/h (0 Bft)
22.09.2017 01:00 7,5 C 94 % 1019,0 hPa 0,0 l/m N 0,00 h 0 W/m 0,1 km/h (0 Bft)
22.09.2017 02:00 6,8 C 95 % 1019,0 hPa 0,0 l/m N 0,00 h 0 W/m 0,0 km/h (0 Bft)
22.09.2017 03:00 6,0 C 96 % 1018,9 hPa 0,0 l/m N 0,00 h 0 W/m 0,0 km/h (0 Bft)
22.09.2017 04:00 5,2 C 97 % 1018,6 hPa 0,0 l/m N 0,00 h 0 W/m 0,0 km/h (0 Bft)
22.09.2017 05:00 4,6 C 97 % 1018,8 hPa 0,0 l/m N 0,00 h 0 W/m 0,0 km/h (0 Bft)
22.09.2017 06:00 4,0 C 97 % 1018,7 hPa 0,0 l/m N 0,00 h 0 W/m 0,0 km/h (0 Bft)
22.09.2017 07:00 3,8 C 98 % 1019,0 hPa 0,0 l/m N 0,08 h 26 W/m 0,0 km/h (0 Bft)
22.09.2017 08:00 4,9 C 98 % 1019,3 hPa 0,0 l/m N 0,58 h 130 W/m 0,0 km/h (0 Bft)
22.09.2017 09:00 7,6 C 97 % 1019,7 hPa 0,0 l/m N 1,00 h 309 W/m 0,0 km/h (0 Bft)
22.09.2017 10:00 11,1 C 91 % 1019,7 hPa 0,0 l/m SO 1,00 h 460 W/m 5,1 km/h (1 Bft)
22.09.2017 11:00 14,1 C 82 % 1019,4 hPa 0,0 l/m S-SW 0,92 h 516 W/m 9,5 km/h (2 Bft)
22.09.2017 12:00 16,0 C 78 % 1019,1 hPa 0,0 l/m SW 1,00 h 640 W/m 9,1 km/h (2 Bft)
22.09.2017 13:00 17,4 C 71 % 1019,0 hPa 0,0 l/m W-SW 1,00 h 585 W/m 9,9 km/h (2 Bft)
22.09.2017 14:00 18,6 C 63 % 1018,8 hPa 0,0 l/m W-SW 1,00 h 580 W/m 9,3 km/h (2 Bft)
22.09.2017 15:00 19,4 C 57 % 1018,7 hPa 0,0 l/m W-SW 1,00 h 520 W/m 8,7 km/h (2 Bft)
22.09.2017 16:00 19,5 C 54 % 1018,8 hPa 0,0 l/m W-SW 1,00 h 387 W/m 5,8 km/h (1 Bft)
22.09.2017 17:00 19,1 C 58 % 1018,9 hPa 0,0 l/m W-SW 1,00 h 215 W/m 4,9 km/h (1 Bft)
22.09.2017 18:00 16,5 C 73 % 1019,1 hPa 0,0 l/m N 0,08 h 48 W/m 0,0 km/h (0 Bft)
22.09.2017 19:00 13,6 C 86 % 1019,2 hPa 0,0 l/m N 0,00 h 8 W/m 0,0 km/h (0 Bft)
22.09.2017 20:00 12,4 C 90 % 1019,8 hPa 0,0 l/m N 0,00 h 0 W/m 0,0 km/h (0 Bft)
22.09.2017 21:00 11,1 C 93 % 1020,0 hPa 0,0 l/m N 0,00 h 0 W/m 0,0 km/h (0 Bft)
22.09.2017 22:00 10,3 C 95 % 1020,3 hPa 0,0 l/m N 0,00 h 0 W/m 0,0 km/h (0 Bft)
22.09.2017 23:00 9,7 C 96 % 1020,7 hPa 0,0 l/m N 0,00 h 0 W/m 0,0 km/h (0 Bft)
23.09.2017 00:00 9,8 C 96 % 1020,9 hPa 0,0 l/m N 0,00 h 0 W/m 0,0 km/h (0 Bft)
23.09.2017 01:00 9,0 C 96 % 1021,1 hPa 0,0 l/m N 0,00 h 0 W/m 0,0 km/h (0 Bft)
23.09.2017 02:00 8,0 C 97 % 1021,2 hPa 0,0 l/m N 0,00 h 0 W/m 0,0 km/h (0 Bft)
23.09.2017 03:00 7,7 C 97 % 1021,0 hPa 0,0 l/m N 0,00 h 0 W/m 0,0 km/h (0 Bft)
23.09.2017 04:00 7,3 C 98 % 1020,9 hPa 0,0 l/m N 0,00 h 0 W/m 0,0 km/h (0 Bft)
23.09.2017 05:00 6,7 C 98 % 1020,8 hPa 0,0 l/m N 0,00 h 0 W/m 0,0 km/h (0 Bft)
23.09.2017 06:00 6,1 C 98 % 1020,7 hPa 0,0 l/m N 0,00 h 0 W/m 0,0 km/h (0 Bft)
23.09.2017 07:00 5,9 C 98 % 1021,0 hPa 0,0 l/m N 0,17 h 26 W/m 0,0 km/h (0 Bft)
23.09.2017 08:00 6,9 C 98 % 1020,9 hPa 0,0 l/m N 0,33 h 117 W/m 0,0 km/h (0 Bft)
23.09.2017 09:00 8,6 C 98 % 1021,1 hPa 0,0 l/m N 0,50 h 215 W/m 0,5 km/h (0 Bft)
23.09.2017 10:00 11,1 C 95 % 1021,2 hPa 0,0 l/m N 0,25 h 262 W/m 0,0 km/h (0 Bft)
23.09.2017 11:00 14,1 C 85 % 1020,9 hPa 0,0 l/m W-SW 0,75 h 522 W/m 3,8 km/h (1 Bft)
23.09.2017 12:00 16,7 C 71 % 1020,2 hPa 0,0 l/m O 1,00 h 638 W/m 11,8 km/h (2 Bft)
23.09.2017 13:00 18,2 C 64 % 1019,6 hPa 0,0 l/m O-NO 1,00 h 673 W/m 9,7 km/h (2 Bft)
23.09.2017 14:00 18,5 C 63 % 1019,1 hPa 0,0 l/m NO 0,67 h 454 W/m 8,6 km/h (2 Bft)
23.09.2017 15:00 19,1 C 59 % 1018,9 hPa 0,0 l/m N-NO 0,92 h 507 W/m 5,8 km/h (1 Bft)
23.09.2017 16:00 19,1 C 58 % 1018,5 hPa 0,0 l/m NO 0,92 h 341 W/m 9,5 km/h (2 Bft)
23.09.2017 17:00 18,5 C 61 % 1018,4 hPa 0,0 l/m O-NO 0,75 h 194 W/m 8,0 km/h (2 Bft)
23.09.2017 18:00 16,3 C 72 % 1018,5 hPa 0,0 l/m O-NO 0,00 h 28 W/m 2,4 km/h (1 Bft)
23.09.2017 19:00 13,5 C 86 % 1018,6 hPa 0,0 l/m N 0,00 h 6 W/m 0,0 km/h (0 Bft)
23.09.2017 20:00 13,3 C 88 % 1018,7 hPa 0,0 l/m N 0,00 h 0 W/m 0,3 km/h (0 Bft)
23.09.2017 21:00 12,8 C 90 % 1018,9 hPa 0,0 l/m O-NO 0,00 h 0 W/m 1,3 km/h (1 Bft)
23.09.2017 22:00 12,6 C 91 % 1018,8 hPa 0,0 l/m N 0,00 h 0 W/m 0,3 km/h (0 Bft)
23.09.2017 23:00 12,7 C 90 % 1018,6 hPa 0,0 l/m N 0,00 h 0 W/m 0,5 km/h (0 Bft)
24.09.2017 00:00 12,5 C 89 % 1018,6 hPa 0,0 l/m N 0,00 h 0 W/m 0,0 km/h (0 Bft)
24.09.2017 01:00 12,2 C 91 % 1018,4 hPa 0,0 l/m N 0,00 h 0 W/m 0,0 km/h (0 Bft)
24.09.2017 02:00 11,7 C 92 % 1018,1 hPa 0,0 l/m N-NW 0,00 h 0 W/m 3,1 km/h (1 Bft)
24.09.2017 03:00 10,9 C 94 % 1017,8 hPa 0,0 l/m N 0,00 h 0 W/m 0,8 km/h (0 Bft)
24.09.2017 04:00 11,0 C 93 % 1017,8 hPa 0,0 l/m N 0,00 h 0 W/m 0,4 km/h (0 Bft)
24.09.2017 05:00 10,5 C 94 % 1017,7 hPa 0,0 l/m N 0,00 h 0 W/m 0,5 km/h (0 Bft)
24.09.2017 06:00 10,3 C 95 % 1017,8 hPa 0,0 l/m N 0,00 h 0 W/m 0,3 km/h (0 Bft)
24.09.2017 07:00 10,0 C 96 % 1018,0 hPa 0,0 l/m N 0,00 h 24 W/m 0,7 km/h (0 Bft)
24.09.2017 08:00 10,6 C 96 % 1018,5 hPa 0,0 l/m N 0,08 h 78 W/m 1,2 km/h (1 Bft)
24.09.2017 09:00 11,6 C 93 % 1018,9 hPa 0,0 l/m N 0,08 h 128 W/m 0,3 km/h (0 Bft)
24.09.2017 10:00 13,1 C 88 % 1019,2 hPa 0,0 l/m N 0,92 h 409 W/m 0,7 km/h (0 Bft)
24.09.2017 11:00 15,0 C 79 % 1019,1 hPa 0,0 l/m N 0,75 h 397 W/m 1,7 km/h (1 Bft)
24.09.2017 12:00 16,6 C 73 % 1018,7 hPa 0,0 l/m NO 0,83 h 531 W/m 6,0 km/h (2 Bft)
24.09.2017 13:00 17,3 C 69 % 1018,3 hPa 0,0 l/m NO 0,42 h 360 W/m 4,8 km/h (1 Bft)
24.09.2017 14:00 17,4 C 69 % 1018,0 hPa 0,0 l/m O-SO 0,42 h 430 W/m 2,3 km/h (1 Bft)
24.09.2017 15:00 18,5 C 64 % 1017,8 hPa 0,0 l/m SO 0,33 h 273 W/m 5,1 km/h (1 Bft)
24.09.2017 16:00 16,5 C 73 % 1017,9 hPa 0,8 l/m S 0,08 h 116 W/m 5,0 km/h (1 Bft)
24.09.2017 17:00 12,9 C 88 % 1018,5 hPa 4,2 l/m W 0,00 h 16 W/m 10,1 km/h (2 Bft)
24.09.2017 18:00 12,1 C 91 % 1018,7 hPa 0,0 l/m O-NO 0,00 h 14 W/m 5,9 km/h (2 Bft)
24.09.2017 19:00 11,4 C 94 % 1018,6 hPa 0,0 l/m O-NO 0,00 h 5 W/m 2,1 km/h (1 Bft)
24.09.2017 20:00 10,8 C 96 % 1018,9 hPa 0,0 l/m N 0,00 h 0 W/m 0,0 km/h (0 Bft)
24.09.2017 21:00 10,7 C 97 % 1019,2 hPa 0,0 l/m N 0,00 h 0 W/m 0,0 km/h (0 Bft)
24.09.2017 22:00 10,8 C 97 % 1019,4 hPa 0,0 l/m N 0,00 h 0 W/m 0,0 km/h (0 Bft)
24.09.2017 23:00 10,6 C 98 % 1019,1 hPa 0,0 l/m N 0,00 h 0 W/m 0,0 km/h (0 Bft)
Min-Datum _ 21.09.17 22.09.17 18.09.17 - - - - 18.09.17
_ Min-Zeit 05:15 16:35 02:55 - - - - 14:15
Minimum _ 3,3 C 51 % 1013,8 hPa - - - - 0,0 km/h (0 Bft)
Max-Datum _ 22.09.17 18.09.17 20.09.17 24.09.17 - 18.09.17 20.09.17 18.09.17
_ Max-Zeit 16:30 01:35 23:00 17:20 - 10:30 13:00 12:40
Maximum _ 19,7 C 100 % 1021,4 hPa 4,2 l/m - 0,08 h 947 W/m 25,7 km/h
W (4 Bft)
Durchschnitt _ 10,5 C 88 % 1018,5 hPa #13,2 l/m SW #39:05 h 263 W/m 2,7 km/h (1 Bft)